createdAt,value
2018-05-04T00:00:03.756Z,1016.81
2018-05-04T00:01:03.748Z,1016.83
2018-05-04T00:02:03.738Z,1016.86
2018-05-04T00:03:03.733Z,1016.81
2018-05-04T00:04:03.732Z,1016.86
2018-05-04T00:05:03.725Z,1016.80
2018-05-04T00:06:03.713Z,1016.83
2018-05-04T00:07:03.708Z,1016.82
2018-05-04T00:08:03.702Z,1016.80
2018-05-04T00:09:03.695Z,1016.76
2018-05-04T00:10:03.693Z,1016.75
2018-05-04T00:11:03.687Z,1016.72
2018-05-04T00:12:03.681Z,1016.77
2018-05-04T00:13:03.677Z,1016.73
2018-05-04T00:14:03.664Z,1016.77
2018-05-04T00:15:03.659Z,1016.70
2018-05-04T00:16:03.652Z,1016.69
2018-05-04T00:17:03.646Z,1016.69
2018-05-04T00:18:03.644Z,1016.65
2018-05-04T00:19:03.638Z,1016.62
2018-05-04T00:20:03.627Z,1016.57
2018-05-04T00:21:03.621Z,1016.61
2018-05-04T00:22:03.624Z,1016.58
2018-05-04T00:23:03.613Z,1016.56
2018-05-04T00:24:03.606Z,1016.54
2018-05-04T00:25:03.600Z,1016.60
2018-05-04T00:26:03.589Z,1016.63
2018-05-04T00:27:03.583Z,1016.61
2018-05-04T00:28:03.578Z,1016.63
2018-05-04T00:29:03.570Z,1016.62
2018-05-04T00:30:03.568Z,1016.63
2018-05-04T00:31:03.562Z,1016.63
2018-05-04T00:32:03.557Z,1016.63
2018-05-04T00:33:03.549Z,1016.62
2018-05-04T00:34:03.541Z,1016.60
2018-05-04T00:35:03.533Z,1016.60
2018-05-04T00:36:03.601Z,1016.66
2018-05-04T00:37:03.524Z,1016.59
2018-05-04T00:38:03.514Z,1016.62
2018-05-04T00:39:03.509Z,1016.62
2018-05-04T00:40:03.501Z,1016.67
2018-05-04T00:41:03.498Z,1016.64
2018-05-04T00:42:03.492Z,1016.70
2018-05-04T00:43:03.488Z,1016.68
2018-05-04T00:44:03.480Z,1016.68
2018-05-04T00:45:03.474Z,1016.77
2018-05-04T00:46:03.463Z,1016.76
2018-05-04T00:47:03.457Z,1016.80
2018-05-04T00:48:03.451Z,1016.75
2018-05-04T00:49:03.444Z,1016.76
2018-05-04T00:50:03.443Z,1016.73
2018-05-04T00:51:03.435Z,1016.72
2018-05-04T00:52:03.425Z,1016.72
2018-05-04T00:53:03.418Z,1016.72
2018-05-04T00:54:03.416Z,1016.70
2018-05-04T00:55:03.409Z,1016.69
2018-05-04T00:56:03.405Z,1016.68
2018-05-04T00:57:03.398Z,1016.71
2018-05-04T00:58:03.387Z,1016.70
2018-05-04T00:59:03.383Z,1016.70
2018-05-04T01:00:03.374Z,1016.68
2018-05-04T01:01:03.367Z,1016.72
2018-05-04T01:02:03.365Z,1016.68
2018-05-04T01:03:03.360Z,1016.73
2018-05-04T01:04:03.359Z,1016.75
2018-05-04T01:05:03.347Z,1016.75
2018-05-04T01:06:03.335Z,1016.77
2018-05-04T01:07:03.328Z,1016.77
2018-05-04T01:08:03.326Z,1016.77
2018-05-04T01:09:03.327Z,1016.77
2018-05-04T01:10:03.309Z,1016.79
2018-05-04T01:11:03.303Z,1016.76
2018-05-04T01:12:03.296Z,1016.77
2018-05-04T01:13:03.290Z,1016.83
2018-05-04T01:14:03.289Z,1016.84
2018-05-04T01:15:03.283Z,1016.88
2018-05-04T01:16:03.276Z,1016.87
2018-05-04T01:17:03.269Z,1016.91
2018-05-04T01:18:03.257Z,1016.85
2018-05-04T01:19:03.251Z,1016.88
2018-05-04T01:20:03.245Z,1016.89
2018-05-04T01:21:03.238Z,1016.87
2018-05-04T01:22:03.235Z,1016.82
2018-05-04T01:23:03.228Z,1016.84
2018-05-04T01:24:03.219Z,1016.89
2018-05-04T01:25:03.211Z,1016.91
2018-05-04T01:26:03.209Z,1016.89
2018-05-04T01:27:03.202Z,1016.92
2018-05-04T01:28:03.198Z,1016.91
2018-05-04T01:29:03.191Z,1016.91
2018-05-04T01:30:03.178Z,1016.98
2018-05-04T01:31:03.174Z,1016.97
2018-05-04T01:32:03.169Z,1017.00
2018-05-04T01:33:03.160Z,1017.01
2018-05-04T01:34:03.157Z,1017.02
2018-05-04T01:35:03.153Z,1017.04
2018-05-04T01:36:03.143Z,1017.04
2018-05-04T01:37:03.137Z,1017.13
2018-05-04T01:38:03.125Z,1017.13
2018-05-04T01:39:03.118Z,1017.19
2018-05-04T01:40:03.120Z,1017.17
2018-05-04T01:41:03.109Z,1017.20
2018-05-04T01:42:03.098Z,1017.23
2018-05-04T01:43:03.092Z,1017.17
2018-05-04T01:44:03.086Z,1017.18
2018-05-04T01:45:03.078Z,1017.14
2018-05-04T01:46:03.077Z,1017.15
2018-05-04T01:47:03.070Z,1017.20
2018-05-04T01:48:03.058Z,1017.22
2018-05-04T01:49:03.052Z,1017.19
2018-05-04T01:50:03.049Z,1017.21
2018-05-04T01:51:03.045Z,1017.21
2018-05-04T01:52:03.036Z,1017.25
2018-05-04T01:53:03.028Z,1017.21
2018-05-04T01:54:03.017Z,1017.24
2018-05-04T01:55:03.011Z,1017.26
2018-05-04T01:56:03.008Z,1017.20
2018-05-04T01:57:03.002Z,1017.20
2018-05-04T01:58:02.989Z,1017.20
2018-05-04T01:59:02.983Z,1017.14
2018-05-04T02:00:02.986Z,1017.18
2018-05-04T02:01:02.971Z,1017.19
2018-05-04T02:02:02.967Z,1017.19
2018-05-04T02:03:02.963Z,1017.19
2018-05-04T02:04:02.955Z,1017.17
2018-05-04T02:05:02.948Z,1017.19
2018-05-04T02:06:02.935Z,1017.21
2018-05-04T02:07:02.929Z,1017.22
2018-05-04T02:08:02.922Z,1017.18
2018-05-04T02:09:02.914Z,1017.18
2018-05-04T02:10:02.912Z,1017.25
2018-05-04T02:11:02.905Z,1017.22
2018-05-04T02:12:02.894Z,1017.25
2018-05-04T02:13:02.888Z,1017.28
2018-05-04T02:14:02.884Z,1017.25
2018-05-04T02:15:02.877Z,1017.30
2018-05-04T02:16:02.873Z,1017.33
2018-05-04T02:17:02.927Z,1017.30
2018-05-04T02:18:02.854Z,1017.36
2018-05-04T02:19:02.846Z,1017.38
2018-05-04T02:20:02.839Z,1017.35
2018-05-04T02:21:02.831Z,1017.34
2018-05-04T02:22:02.830Z,1017.31
2018-05-04T02:23:02.826Z,1017.28
2018-05-04T02:24:02.815Z,1017.27
2018-05-04T02:25:02.808Z,1017.26
2018-05-04T02:26:02.797Z,1017.23
2018-05-04T02:27:02.789Z,1017.21
2018-05-04T02:28:02.788Z,1017.18
2018-05-04T02:29:02.783Z,1017.18
2018-05-04T02:30:02.768Z,1017.11
2018-05-04T02:31:02.764Z,1017.16
2018-05-04T02:32:02.755Z,1017.16
2018-05-04T02:33:02.749Z,1017.17
2018-05-04T02:34:02.746Z,1017.17
2018-05-04T02:35:02.739Z,1017.11
2018-05-04T02:36:02.733Z,1017.13
2018-05-04T02:37:02.726Z,1017.12
2018-05-04T02:38:02.712Z,1017.14
2018-05-04T02:39:02.707Z,1017.20
2018-05-04T02:40:02.712Z,1017.15
2018-05-04T02:41:02.693Z,1017.17
2018-05-04T02:42:02.688Z,1017.16
2018-05-04T02:43:02.682Z,1017.19
2018-05-04T02:44:02.670Z,1017.17
2018-05-04T02:45:02.663Z,1017.14
2018-05-04T02:46:02.661Z,1017.16
2018-05-04T02:47:02.654Z,1017.19
2018-05-04T02:48:02.648Z,1017.12
2018-05-04T02:49:02.643Z,1017.12
2018-05-04T02:50:02.627Z,1017.14
2018-05-04T02:51:02.621Z,1017.14
2018-05-04T02:52:02.615Z,1017.11
2018-05-04T02:53:02.610Z,1017.04
2018-05-04T02:54:02.603Z,1017.09
2018-05-04T02:55:02.598Z,1017.01
2018-05-04T02:56:02.592Z,1017.07
2018-05-04T02:57:02.583Z,1017.02
2018-05-04T02:58:02.571Z,1017.00
2018-05-04T02:59:02.565Z,1017.00
2018-05-04T03:00:02.566Z,1017.00
2018-05-04T03:01:02.556Z,1016.99
2018-05-04T03:02:02.543Z,1017.01
2018-05-04T03:03:02.536Z,1017.02
2018-05-04T03:04:02.530Z,1017.04
2018-05-04T03:05:02.522Z,1017.10
2018-05-04T03:06:02.521Z,1017.03
2018-05-04T03:07:02.512Z,1016.99
2018-05-04T03:08:02.505Z,1017.03
2018-05-04T03:09:02.498Z,1016.91
2018-05-04T03:10:02.487Z,1016.97
2018-05-04T03:11:02.481Z,1016.98
2018-05-04T03:12:02.474Z,1017.00
2018-05-04T03:13:02.467Z,1016.95
2018-05-04T03:14:02.465Z,1016.94
2018-05-04T03:15:02.471Z,1016.97
2018-05-04T03:16:02.446Z,1016.91
2018-05-04T03:17:02.438Z,1016.91
2018-05-04T03:18:02.436Z,1016.90
2018-05-04T03:19:02.428Z,1016.89
2018-05-04T03:20:02.422Z,1016.86
2018-05-04T03:21:02.414Z,1016.85
2018-05-04T03:22:02.431Z,1016.80
2018-05-04T03:23:02.396Z,1016.79
2018-05-04T03:24:02.389Z,1016.80
2018-05-04T03:25:02.383Z,1016.82
2018-05-04T03:26:02.379Z,1016.81
2018-05-04T03:27:02.372Z,1016.84
2018-05-04T03:28:02.367Z,1016.85
2018-05-04T03:29:02.359Z,1016.89
2018-05-04T03:30:02.347Z,1016.87
2018-05-04T03:31:02.344Z,1016.83
2018-05-04T03:32:02.340Z,1016.86
2018-05-04T03:33:02.330Z,1016.81
2018-05-04T03:34:02.319Z,1016.84
2018-05-04T03:35:02.312Z,1016.80
2018-05-04T03:36:02.305Z,1016.81
2018-05-04T03:37:02.301Z,1016.82
2018-05-04T03:38:02.295Z,1016.83
2018-05-04T03:39:02.289Z,1016.85
2018-05-04T03:40:02.281Z,1016.82
2018-05-04T03:41:02.273Z,1016.81
2018-05-04T03:42:02.262Z,1016.77
2018-05-04T03:43:02.256Z,1016.85
2018-05-04T03:44:02.250Z,1016.85
2018-05-04T03:45:02.244Z,1016.86
2018-05-04T03:46:02.240Z,1016.82
2018-05-04T03:47:02.233Z,1016.86
2018-05-04T03:48:02.224Z,1016.84
2018-05-04T03:49:02.214Z,1016.87
2018-05-04T03:50:02.212Z,1016.79
2018-05-04T03:51:02.205Z,1016.85
2018-05-04T03:52:02.264Z,1016.86
2018-05-04T03:53:02.190Z,1016.93
2018-05-04T03:54:02.178Z,1016.91
2018-05-04T03:55:02.171Z,1016.90
2018-05-04T03:56:02.166Z,1016.92
2018-05-04T03:57:02.157Z,1016.89
2018-05-04T03:58:02.154Z,1016.89
2018-05-04T03:59:02.152Z,1016.93
2018-05-04T04:00:02.141Z,1016.88
2018-05-04T04:01:02.133Z,1016.90
2018-05-04T04:02:02.121Z,1016.85
2018-05-04T04:03:02.114Z,1016.91
2018-05-04T04:04:02.113Z,1016.87
2018-05-04T04:05:02.104Z,1016.89
2018-05-04T04:06:02.093Z,1016.90
2018-05-04T04:07:02.094Z,1016.93
2018-05-04T04:08:02.079Z,1016.90
2018-05-04T04:09:02.072Z,1016.87
2018-05-04T04:10:02.068Z,1016.98
2018-05-04T04:11:02.062Z,1016.94
2018-05-04T04:12:02.067Z,1017.01
2018-05-04T04:13:02.047Z,1016.98
2018-05-04T04:14:02.037Z,1016.99
2018-05-04T04:15:02.028Z,1017.00
2018-05-04T04:16:02.022Z,1017.04
2018-05-04T04:17:02.013Z,1017.04
2018-05-04T04:18:02.065Z,1016.98
2018-05-04T04:19:02.005Z,1016.99
2018-05-04T04:20:01.990Z,1017.01
2018-05-04T04:21:01.983Z,1016.99
2018-05-04T04:22:01.984Z,1017.00
2018-05-04T04:23:01.974Z,1017.05
2018-05-04T04:24:01.971Z,1017.03
2018-05-04T04:25:01.960Z,1017.01
2018-05-04T04:26:01.947Z,1017.02
2018-05-04T04:27:01.940Z,1017.04
2018-05-04T04:28:01.934Z,1017.00
2018-05-04T04:29:01.926Z,1017.07
2018-05-04T04:30:01.927Z,1017.05
2018-05-04T04:31:01.987Z,1017.13
2018-05-04T04:32:01.911Z,1017.13
2018-05-04T04:33:01.900Z,1017.18
2018-05-04T04:34:01.890Z,1017.22
2018-05-04T04:35:01.881Z,1017.23
2018-05-04T04:36:01.879Z,1017.27
2018-05-04T04:37:01.870Z,1017.29
2018-05-04T04:38:01.859Z,1017.36
2018-05-04T04:39:01.853Z,1017.44
2018-05-04T04:40:01.846Z,1017.42
2018-05-04T04:41:01.841Z,1017.52
2018-05-04T04:42:01.853Z,1017.61
2018-05-04T04:43:01.830Z,1017.61
2018-05-04T04:44:01.824Z,1017.57
2018-05-04T04:45:01.817Z,1017.63
2018-05-04T04:46:01.806Z,1017.70
2018-05-04T04:47:01.804Z,1017.73
2018-05-04T04:48:01.795Z,1017.74
2018-05-04T04:49:01.786Z,1017.79
2018-05-04T04:50:01.786Z,1017.75
2018-05-04T04:51:01.781Z,1017.86
2018-05-04T04:52:01.770Z,1017.90
2018-05-04T04:53:01.768Z,1017.99
2018-05-04T04:54:01.765Z,1017.93
2018-05-04T04:55:01.758Z,1017.98
2018-05-04T04:56:01.755Z,1017.95
2018-05-04T04:57:01.753Z,1018.04
2018-05-04T04:58:01.740Z,1018.02
2018-05-04T04:59:01.736Z,1018.04
2018-05-04T05:00:01.729Z,1018.02
2018-05-04T05:01:01.727Z,1018.09
2018-05-04T05:02:01.733Z,1018.12
2018-05-04T05:03:01.723Z,1018.09
2018-05-04T05:04:01.720Z,1018.15
2018-05-04T05:05:01.717Z,1018.14
2018-05-04T05:06:01.710Z,1018.18
2018-05-04T05:07:01.707Z,1018.22
2018-05-04T05:08:01.709Z,1018.17
2018-05-04T05:09:01.702Z,1018.28
2018-05-04T05:10:01.696Z,1018.27
2018-05-04T05:11:01.696Z,1018.25
2018-05-04T05:12:01.696Z,1018.34
2018-05-04T05:13:01.687Z,1018.32
2018-05-04T05:14:01.690Z,1018.30
2018-05-04T05:15:01.687Z,1018.40
2018-05-04T05:16:01.689Z,1018.44
2018-05-04T05:17:01.685Z,1018.41
2018-05-04T05:18:01.678Z,1018.43
2018-05-04T05:19:01.682Z,1018.52
2018-05-04T05:20:01.677Z,1018.53
2018-05-04T05:21:01.673Z,1018.55
2018-05-04T05:22:01.681Z,1018.57
2018-05-04T05:23:01.680Z,1018.60
2018-05-04T05:24:01.672Z,1018.63
2018-05-04T05:25:01.677Z,1018.64
2018-05-04T05:26:01.680Z,1018.69
2018-05-04T05:27:01.675Z,1018.69
2018-05-04T05:28:01.675Z,1018.72
2018-05-04T05:29:01.674Z,1018.72
2018-05-04T05:30:01.672Z,1018.79
2018-05-04T05:31:01.670Z,1018.78
2018-05-04T05:32:01.674Z,1018.86
2018-05-04T05:33:01.672Z,1018.81
2018-05-04T05:34:01.677Z,1018.90
2018-05-04T05:35:01.678Z,1018.94
2018-05-04T05:36:01.682Z,1018.94
2018-05-04T05:37:01.682Z,1018.97
2018-05-04T05:38:01.721Z,1018.97
2018-05-04T05:39:01.679Z,1019.01
2018-05-04T05:40:01.687Z,1019.04
2018-05-04T05:41:01.694Z,1019.05
2018-05-04T05:42:01.687Z,1019.09
2018-05-04T05:43:01.688Z,1019.11
2018-05-04T05:44:01.689Z,1019.13
2018-05-04T05:45:01.696Z,1019.15
2018-05-04T05:46:01.697Z,1019.15
2018-05-04T05:47:01.701Z,1019.17
2018-05-04T05:48:01.703Z,1019.18
2018-05-04T05:49:01.705Z,1019.20
2018-05-04T05:50:01.705Z,1019.23
2018-05-04T05:51:01.707Z,1019.20
2018-05-04T05:52:01.711Z,1019.22
2018-05-04T05:53:01.712Z,1019.24
2018-05-04T05:54:01.721Z,1019.26
2018-05-04T05:55:01.725Z,1019.29
2018-05-04T05:56:01.723Z,1019.26
2018-05-04T05:57:01.726Z,1019.28
2018-05-04T05:58:01.786Z,1019.30
2018-05-04T05:59:01.738Z,1019.36
2018-05-04T06:00:01.741Z,1019.36
2018-05-04T06:01:01.744Z,1019.34
2018-05-04T06:02:01.743Z,1019.32
2018-05-04T06:03:01.749Z,1019.40
2018-05-04T06:04:01.854Z,1019.39
2018-05-04T06:05:01.760Z,1019.45
2018-05-04T06:06:01.765Z,1019.47
2018-05-04T06:07:01.768Z,1019.49
2018-05-04T06:08:01.774Z,1019.49
2018-05-04T06:09:01.780Z,1019.45
2018-05-04T06:10:01.785Z,1019.46
2018-05-04T06:11:01.787Z,1019.47
2018-05-04T06:12:01.793Z,1019.49
2018-05-04T06:13:01.799Z,1019.56
2018-05-04T06:14:01.798Z,1019.52
2018-05-04T06:15:01.907Z,1019.53
2018-05-04T06:16:01.808Z,1019.54
2018-05-04T06:17:01.816Z,1019.52
2018-05-04T06:18:01.822Z,1019.57
2018-05-04T06:19:01.840Z,1019.59
2018-05-04T06:20:01.835Z,1019.60
2018-05-04T06:21:01.838Z,1019.57
2018-05-04T06:22:01.842Z,1019.61
2018-05-04T06:23:01.846Z,1019.60
2018-05-04T06:24:01.852Z,1019.67
2018-05-04T06:25:01.920Z,1019.70
2018-05-04T06:26:01.868Z,1019.76
2018-05-04T06:27:01.875Z,1019.66
2018-05-04T06:28:01.877Z,1019.68
2018-05-04T06:29:01.882Z,1019.71
2018-05-04T06:30:01.894Z,1019.70
2018-05-04T06:31:01.900Z,1019.71
2018-05-04T06:32:01.905Z,1019.71
2018-05-04T06:33:01.911Z,1019.72
2018-05-04T06:34:01.914Z,1019.74
2018-05-04T06:35:01.921Z,1019.74
2018-05-04T06:36:01.928Z,1019.78
2018-05-04T06:37:01.937Z,1019.76
2018-05-04T06:38:01.946Z,1019.77
2018-05-04T06:39:01.953Z,1019.80
2018-05-04T06:40:01.963Z,1019.81
2018-05-04T06:41:01.969Z,1019.87
2018-05-04T06:42:01.972Z,1019.86
2018-05-04T06:43:01.979Z,1019.86
2018-05-04T06:44:02.002Z,1019.87
2018-05-04T06:45:01.999Z,1019.93
2018-05-04T06:46:02.001Z,1019.89
2018-05-04T06:47:02.011Z,1019.88
2018-05-04T06:48:02.018Z,1019.89
2018-05-04T06:49:02.079Z,1019.89
2018-05-04T06:50:02.042Z,1019.91
2018-05-04T06:51:02.047Z,1019.90
2018-05-04T06:52:02.067Z,1019.94
2018-05-04T06:53:02.064Z,1020.00
2018-05-04T06:54:02.072Z,1020.02
2018-05-04T06:55:02.080Z,1020.05
2018-05-04T06:56:02.085Z,1020.08
2018-05-04T06:57:02.092Z,1020.13
2018-05-04T06:58:02.107Z,1020.15
2018-05-04T06:59:02.118Z,1020.13
2018-05-04T07:00:02.121Z,1020.11
2018-05-04T07:01:02.128Z,1020.20
2018-05-04T07:02:02.143Z,1020.20
2018-05-04T07:03:02.152Z,1020.21
2018-05-04T07:04:02.163Z,1020.18
2018-05-04T07:05:02.171Z,1020.20
2018-05-04T07:06:02.174Z,1020.15
2018-05-04T07:07:02.185Z,1020.16
2018-05-04T07:08:02.199Z,1020.19
2018-05-04T07:09:02.227Z,1020.18
2018-05-04T07:10:02.218Z,1020.19
2018-05-04T07:11:02.231Z,1020.17
2018-05-04T07:12:02.239Z,1020.24
2018-05-04T07:13:02.246Z,1020.19
2018-05-04T07:14:02.252Z,1020.18
2018-05-04T07:15:02.312Z,1020.22
2018-05-04T07:16:02.277Z,1020.20
2018-05-04T07:17:02.286Z,1020.21
2018-05-04T07:18:02.292Z,1020.18
2018-05-04T07:19:02.303Z,1020.16
2018-05-04T07:20:02.315Z,1020.18
2018-05-04T07:21:02.325Z,1020.12
2018-05-04T07:22:02.403Z,1020.16
2018-05-04T07:23:02.351Z,1020.16
2018-05-04T07:24:02.362Z,1020.13
2018-05-04T07:25:02.372Z,1020.18
2018-05-04T07:26:02.378Z,1020.15
2018-05-04T07:27:02.390Z,1020.11
2018-05-04T07:28:02.403Z,1020.11
2018-05-04T07:29:02.410Z,1020.06
2018-05-04T07:30:02.428Z,1020.10
2018-05-04T07:31:02.437Z,1020.10
2018-05-04T07:32:02.444Z,1020.13
2018-05-04T07:33:02.457Z,1020.13
2018-05-04T07:34:02.476Z,1020.08
2018-05-04T07:35:02.483Z,1020.13
2018-05-04T07:36:02.559Z,1020.18
2018-05-04T07:37:02.506Z,1020.17
2018-05-04T07:38:02.516Z,1020.19
2018-05-04T07:39:02.527Z,1020.19
2018-05-04T07:40:02.540Z,1019.42
2018-05-04T07:41:02.548Z,1019.42
2018-05-04T07:42:02.564Z,1019.34
2018-05-04T07:43:02.609Z,1019.34
2018-05-04T07:44:02.588Z,1019.34
2018-05-04T07:45:02.600Z,1019.35
2018-05-04T07:46:02.611Z,1019.30
2018-05-04T07:47:02.630Z,1019.32
2018-05-04T07:48:02.637Z,1019.30
2018-05-04T07:49:02.651Z,1019.32
2018-05-04T07:50:02.659Z,1019.32
2018-05-04T07:51:02.672Z,1019.38
2018-05-04T07:52:02.684Z,1019.42
2018-05-04T07:53:02.697Z,1019.42
2018-05-04T07:54:02.716Z,1019.44
2018-05-04T07:55:02.728Z,1019.41
2018-05-04T07:56:02.742Z,1019.43
2018-05-04T07:57:02.756Z,1019.45
2018-05-04T07:58:02.770Z,1019.46
2018-05-04T07:59:02.777Z,1019.46
2018-05-04T08:00:02.791Z,1019.51
2018-05-04T08:01:02.806Z,1019.45
2018-05-04T08:02:02.822Z,1019.42
2018-05-04T08:03:02.836Z,1019.42
2018-05-04T08:04:02.846Z,1019.43
2018-05-04T08:05:02.860Z,1019.40
2018-05-04T08:06:02.880Z,1019.41
2018-05-04T08:07:02.893Z,1019.39
2018-05-04T08:08:02.908Z,1019.43
2018-05-04T08:09:02.923Z,1019.43
2018-05-04T08:10:02.933Z,1019.39
2018-05-04T08:11:02.947Z,1019.47
2018-05-04T08:12:02.966Z,1019.45
2018-05-04T08:13:02.976Z,1019.48
2018-05-04T08:14:02.995Z,1019.52
2018-05-04T08:15:03.014Z,1019.54
2018-05-04T08:16:03.027Z,1019.53
2018-05-04T08:17:03.039Z,1019.48
2018-05-04T08:18:03.051Z,1019.50
2018-05-04T08:19:03.068Z,1019.49
2018-05-04T08:20:03.168Z,1019.52
2018-05-04T08:21:03.099Z,1019.55
2018-05-04T08:22:03.111Z,1019.63
2018-05-04T08:23:03.126Z,1019.58
2018-05-04T08:24:03.141Z,1019.67
2018-05-04T08:25:03.160Z,1019.63
2018-05-04T08:26:03.177Z,1019.73
2018-05-04T08:27:03.193Z,1019.76
2018-05-04T08:28:03.211Z,1019.75
2018-05-04T08:29:03.224Z,1019.80
2018-05-04T08:30:03.234Z,1019.78
2018-05-04T08:31:03.251Z,1019.90
2018-05-04T08:32:03.267Z,1019.95
2018-05-04T08:33:03.281Z,1019.92
2018-05-04T08:34:03.303Z,1019.96
2018-05-04T08:35:03.335Z,1020.04
2018-05-04T08:36:03.331Z,1020.13
2018-05-04T08:37:03.345Z,1020.21
2018-05-04T08:38:03.367Z,1020.23
2018-05-04T08:39:03.385Z,1020.24
2018-05-04T08:40:03.398Z,1020.34
2018-05-04T08:41:03.413Z,1020.34
2018-05-04T08:42:03.426Z,1020.26
2018-05-04T08:43:03.520Z,1020.26
2018-05-04T08:44:03.457Z,1020.37
2018-05-04T08:45:03.474Z,1020.54
2018-05-04T08:46:03.495Z,1020.44
2018-05-04T08:47:03.517Z,1020.46
2018-05-04T08:48:03.529Z,1020.65
2018-05-04T08:49:03.545Z,1020.66
2018-05-04T08:50:03.557Z,1020.61
2018-05-04T08:51:03.628Z,1020.52
2018-05-04T08:52:03.594Z,1020.46
2018-05-04T08:53:03.609Z,1020.39
2018-05-04T08:54:03.622Z,1020.43
2018-05-04T08:55:03.638Z,1020.44
2018-05-04T08:56:03.654Z,1020.41
2018-05-04T08:57:03.679Z,1020.34
2018-05-04T08:58:03.691Z,1020.29
2018-05-04T08:59:03.708Z,1020.19
2018-05-04T09:00:03.724Z,1020.10
2018-05-04T09:01:03.740Z,1020.03
2018-05-04T09:02:03.754Z,1020.02
2018-05-04T09:03:03.769Z,1020.10
2018-05-04T09:04:03.787Z,1020.14
2018-05-04T09:05:03.819Z,1020.15
2018-05-04T09:06:03.826Z,1020.03
2018-05-04T09:07:03.841Z,1019.96
2018-05-04T09:08:03.854Z,1019.97
2018-05-04T09:09:03.872Z,1019.95
2018-05-04T09:10:03.892Z,1019.92
2018-05-04T09:11:03.909Z,1019.91
2018-05-04T09:12:03.928Z,1019.87
2018-05-04T09:13:03.941Z,1019.93
2018-05-04T09:14:03.959Z,1019.94
2018-05-04T09:15:03.971Z,1019.90
2018-05-04T09:16:03.988Z,1019.92
2018-05-04T09:17:04.010Z,1020.01
2018-05-04T09:18:04.027Z,1020.00
2018-05-04T09:19:04.046Z,1019.97
2018-05-04T09:20:04.063Z,1019.95
2018-05-04T09:21:04.078Z,1019.99
2018-05-04T09:22:04.093Z,1019.90
2018-05-04T09:23:04.109Z,1020.03
2018-05-04T09:24:04.130Z,1020.05
2018-05-04T09:25:04.150Z,1020.11
2018-05-04T09:26:04.159Z,1020.12
2018-05-04T09:27:04.177Z,1020.09
2018-05-04T09:28:04.195Z,1020.04
2018-05-04T09:29:04.209Z,1020.10
2018-05-04T09:30:04.232Z,1020.07
2018-05-04T09:31:04.340Z,1020.06
2018-05-04T09:32:04.268Z,1020.15
2018-05-04T09:33:04.283Z,1020.16
2018-05-04T09:34:04.304Z,1020.12
2018-05-04T09:35:04.313Z,1020.03
2018-05-04T09:36:04.333Z,1019.91
2018-05-04T09:37:04.496Z,1019.88
2018-05-04T09:38:04.370Z,1019.78
2018-05-04T09:39:04.386Z,1019.82
2018-05-04T09:40:04.400Z,1019.80
2018-05-04T09:41:04.416Z,1019.73
2018-05-04T09:42:04.438Z,1019.68
2018-05-04T09:43:04.456Z,1019.61
2018-05-04T09:44:04.473Z,1019.56
2018-05-04T09:45:04.491Z,1019.51
2018-05-04T09:46:04.505Z,1019.48
2018-05-04T09:47:04.520Z,1019.37
2018-05-04T09:48:04.538Z,1019.23
2018-05-04T09:49:04.595Z,1019.19
2018-05-04T09:50:04.584Z,1019.24
2018-05-04T09:51:04.596Z,1019.19
2018-05-04T09:52:04.615Z,1019.18
2018-05-04T09:53:04.628Z,1019.22
2018-05-04T09:54:04.641Z,1019.21
2018-05-04T09:55:04.659Z,1019.11
2018-05-04T09:56:04.760Z,1019.17
2018-05-04T09:57:04.697Z,1019.18
2018-05-04T09:58:04.710Z,1019.27
2018-05-04T09:59:04.728Z,1019.23
2018-05-04T10:00:04.744Z,1019.14
2018-05-04T10:01:04.767Z,1019.12
2018-05-04T10:02:04.784Z,1019.06
2018-05-04T10:03:04.812Z,1019.16
2018-05-04T10:04:04.890Z,1019.09
2018-05-04T10:05:04.841Z,1019.10
2018-05-04T10:06:04.847Z,1019.00
2018-05-04T10:07:04.862Z,1019.04
2018-05-04T10:08:04.879Z,1018.95
2018-05-04T10:09:04.956Z,1018.95
2018-05-04T10:10:04.915Z,1018.93
2018-05-04T10:11:04.932Z,1018.95
2018-05-04T10:12:04.957Z,1018.94
2018-05-04T10:13:04.960Z,1018.90
2018-05-04T10:14:04.978Z,1018.96
2018-05-04T10:15:04.994Z,1018.93
2018-05-04T10:16:05.017Z,1018.91
2018-05-04T10:17:05.026Z,1018.88
2018-05-04T10:18:05.037Z,1018.84
2018-05-04T10:19:05.052Z,1018.90
2018-05-04T10:20:05.072Z,1018.88
2018-05-04T10:21:05.088Z,1018.86
2018-05-04T10:22:05.099Z,1018.88
2018-05-04T10:23:05.116Z,1019.02
2018-05-04T10:24:05.132Z,1018.90
2018-05-04T10:25:05.149Z,1018.93
2018-05-04T10:26:05.169Z,1018.80
2018-05-04T10:27:05.186Z,1018.77
2018-05-04T10:28:05.195Z,1018.78
2018-05-04T10:29:05.211Z,1018.81
2018-05-04T10:30:05.232Z,1018.80
2018-05-04T10:31:05.247Z,1018.80
2018-05-04T10:32:05.265Z,1018.89
2018-05-04T10:33:05.282Z,1018.78
2018-05-04T10:34:05.289Z,1018.79
2018-05-04T10:35:05.306Z,1018.76
2018-05-04T10:36:05.319Z,1018.75
2018-05-04T10:37:05.336Z,1018.71
2018-05-04T10:38:05.382Z,1018.73
2018-05-04T10:39:05.374Z,1018.69
2018-05-04T10:40:05.387Z,1018.67
2018-05-04T10:41:05.404Z,1018.67
2018-05-04T10:42:05.413Z,1018.64
2018-05-04T10:43:05.428Z,1018.70
2018-05-04T10:44:05.450Z,1018.67
2018-05-04T10:45:05.561Z,1018.75
2018-05-04T10:46:05.476Z,1018.67
2018-05-04T10:47:05.491Z,1018.70
2018-05-04T10:48:05.507Z,1018.66
2018-05-04T10:49:05.523Z,1018.65
2018-05-04T10:50:05.553Z,1018.64
2018-05-04T10:51:05.557Z,1018.65
2018-05-04T10:52:05.573Z,1018.69
2018-05-04T10:53:05.588Z,1018.72
2018-05-04T10:54:05.599Z,1018.64
2018-05-04T10:55:05.614Z,1018.58
2018-05-04T10:56:05.631Z,1018.62
2018-05-04T10:57:05.714Z,1018.65
2018-05-04T10:58:05.664Z,1018.65
2018-05-04T10:59:05.681Z,1018.65
2018-05-04T11:00:05.691Z,1018.73
2018-05-04T11:01:05.705Z,1018.69
2018-05-04T11:02:05.724Z,1018.64
2018-05-04T11:03:05.740Z,1018.62
2018-05-04T11:04:05.757Z,1018.59
2018-05-04T11:05:05.769Z,1018.59
2018-05-04T11:06:05.783Z,1018.57
2018-05-04T11:07:05.794Z,1018.57
2018-05-04T11:08:05.809Z,1018.55
2018-05-04T11:09:05.824Z,1018.58
2018-05-04T11:10:05.843Z,1018.53
2018-05-04T11:11:05.859Z,1018.64
2018-05-04T11:12:05.876Z,1018.60
2018-05-04T11:13:05.888Z,1018.64
2018-05-04T11:14:05.897Z,1018.59
2018-05-04T11:15:05.912Z,1018.58
2018-05-04T11:16:05.933Z,1018.50
2018-05-04T11:17:05.946Z,1018.44
2018-05-04T11:18:05.956Z,1018.40
2018-05-04T11:19:06.046Z,1018.32
2018-05-04T11:20:05.985Z,1018.33
2018-05-04T11:21:06.001Z,1018.16
2018-05-04T11:22:06.018Z,1018.16
2018-05-04T11:23:06.031Z,1018.21
2018-05-04T11:24:06.052Z,1018.21
2018-05-04T11:25:06.058Z,1018.22
2018-05-04T11:26:06.069Z,1018.18
2018-05-04T11:27:06.078Z,1018.13
2018-05-04T11:28:06.090Z,1018.22
2018-05-04T11:29:06.101Z,1018.13
2018-05-04T11:30:06.121Z,1018.12
2018-05-04T11:31:06.127Z,1018.12
2018-05-04T11:32:06.133Z,1018.10
2018-05-04T11:33:06.142Z,1018.11
2018-05-04T11:34:06.156Z,1018.18
2018-05-04T11:35:06.166Z,1018.05
2018-05-04T11:36:06.179Z,1018.03
2018-05-04T11:37:06.184Z,1017.98
2018-05-04T11:38:06.189Z,1018.02
2018-05-04T11:39:06.195Z,1018.03
2018-05-04T11:40:06.207Z,1017.97
2018-05-04T11:41:06.212Z,1017.93
2018-05-04T11:42:06.223Z,1017.96
2018-05-04T11:43:06.231Z,1017.98
2018-05-04T11:44:06.236Z,1017.96
2018-05-04T11:45:06.320Z,1017.94
2018-05-04T11:46:06.242Z,1017.97
2018-05-04T11:47:06.249Z,1017.96
2018-05-04T11:48:06.259Z,1017.92
2018-05-04T11:49:06.265Z,1017.99
2018-05-04T11:50:06.266Z,1017.93
2018-05-04T11:51:06.272Z,1017.90
2018-05-04T11:52:06.277Z,1017.88
2018-05-04T11:53:06.281Z,1017.74
2018-05-04T11:54:06.292Z,1017.90
2018-05-04T11:55:06.365Z,1017.91
2018-05-04T11:56:06.303Z,1017.86
2018-05-04T11:57:06.308Z,1017.87
2018-05-04T11:58:06.305Z,1017.83
2018-05-04T11:59:06.320Z,1017.75
2018-05-04T12:00:06.315Z,1017.84
2018-05-04T12:01:06.318Z,1017.83
2018-05-04T12:02:06.327Z,1017.80
2018-05-04T12:03:06.335Z,1017.80
2018-05-04T12:04:06.341Z,1017.79
2018-05-04T12:05:06.335Z,1017.81